Time;durP1;ratioP1;P1;durP2;ratioP2;P2;SDS_P1;SDS_P2;PMS_P1;PMS_P2;Temp;Humidity;BMP_temperature;BMP_pressure;BME280_temperature;BME280_humidity;BME280_pressure;Samples;Min_cycle;Max_cycle;Signal;HPM_P1;HPM_P2
2021/04/30 00:00:30;;;;;;;6.03;5.53;;;9.00;99.90;;;;;;4951680;28;20192;-90
2021/04/30 00:02:55;;;;;;;5.93;5.43;;;9.00;99.90;;;;;;4932707;28;20221;-90
2021/04/30 00:05:26;;;;;;;5.93;5.30;;;8.90;99.90;;;;;;4928614;28;20480;-89
2021/04/30 00:07:52;;;;;;;5.30;4.90;;;8.80;99.90;;;;;;4935371;28;20465;-90
2021/04/30 00:10:18;;;;;;;5.63;5.13;;;8.70;99.90;;;;;;4937018;28;20454;-89
2021/04/30 00:12:43;;;;;;;5.77;5.27;;;8.80;99.90;;;;;;4937630;28;21476;-90
2021/04/30 00:15:10;;;;;;;5.30;4.80;;;8.90;99.90;;;;;;4935529;28;20552;-90
2021/04/30 00:17:36;;;;;;;6.47;5.10;;;8.90;99.90;;;;;;4933120;28;20210;-89
2021/04/30 00:20:02;;;;;;;5.27;4.87;;;8.80;99.90;;;;;;4933392;28;21484;-90
2021/04/30 00:22:28;;;;;;;6.00;5.50;;;8.90;99.90;;;;;;4941507;28;20673;-89
2021/04/30 00:24:57;;;;;;;5.77;5.27;;;8.90;99.90;;;;;;4931907;28;20458;-90
2021/04/30 00:27:22;;;;;;;5.80;5.30;;;8.80;99.90;;;;;;4939914;28;20478;-90
2021/04/30 00:29:48;;;;;;;5.93;5.50;;;8.70;99.90;;;;;;4936875;28;20990;-89
2021/04/30 00:32:24;;;;;;;6.57;5.80;;;8.70;99.90;;;;;;4938191;28;20363;-88
2021/04/30 00:34:53;;;;;;;5.67;5.27;;;8.80;99.90;;;;;;4941604;28;20182;-88
2021/04/30 00:37:19;;;;;;;6.03;5.50;;;8.90;99.90;;;;;;4956339;28;20454;-87
2021/04/30 00:39:44;;;;;;;6.00;5.47;;;9.00;99.90;;;;;;4940102;28;20962;-87
2021/04/30 00:42:10;;;;;;;6.17;5.67;;;9.00;99.90;;;;;;4941210;28;20192;-88
2021/04/30 00:44:36;;;;;;;6.33;5.73;;;9.00;99.90;;;;;;4939376;28;20194;-87
2021/04/30 00:47:02;;;;;;;6.63;5.93;;;8.90;99.90;;;;;;4943172;28;20601;-87
2021/04/30 00:49:28;;;;;;;6.20;5.70;;;8.90;99.90;;;;;;4939581;28;20565;-88
2021/04/30 00:51:53;;;;;;;6.80;6.27;;;8.80;99.90;;;;;;4943078;28;20485;-87
2021/04/30 00:54:19;;;;;;;6.93;6.27;;;8.70;99.90;;;;;;4939371;28;20647;-88
2021/04/30 00:56:45;;;;;;;8.97;7.03;;;8.70;99.90;;;;;;4941242;28;20245;-88
2021/04/30 00:59:12;;;;;;;7.13;6.43;;;8.70;99.90;;;;;;4942492;28;20203;-87
2021/04/30 01:01:39;;;;;;;6.73;6.20;;;8.70;99.90;;;;;;4944687;28;20462;-87
2021/04/30 01:04:05;;;;;;;5.80;5.27;;;8.80;99.90;;;;;;4941857;28;20829;-89
2021/04/30 01:06:32;;;;;;;6.23;5.70;;;8.70;99.90;;;;;;4939608;28;20518;-87
2021/04/30 01:08:58;;;;;;;6.33;5.83;;;8.70;99.90;;;;;;4938791;28;20444;-87
2021/04/30 01:11:23;;;;;;;6.70;6.20;;;8.70;99.90;;;;;;4935646;28;20884;-88
2021/04/30 01:13:49;;;;;;;5.87;5.37;;;8.70;99.90;;;;;;4932358;28;20478;-89
2021/04/30 01:16:15;;;;;;;6.60;6.03;;;8.70;99.90;;;;;;4935500;28;20825;-89
2021/04/30 01:18:47;;;;;;;6.17;5.57;;;8.70;99.90;;;;;;4941036;28;20272;-88
2021/04/30 01:21:13;;;;;;;5.90;5.40;;;8.60;99.90;;;;;;4933847;28;20226;-88
2021/04/30 01:23:50;;;;;;;5.80;5.30;;;8.60;99.90;;;;;;4936709;28;20454;-89
2021/04/30 01:26:17;;;;;;;5.67;5.17;;;8.60;99.90;;;;;;4950597;28;20478;-88
2021/04/30 01:28:44;;;;;;;5.93;5.43;;;8.60;99.90;;;;;;4950584;28;20477;-88
2021/04/30 01:31:10;;;;;;;8.90;5.93;;;8.60;99.90;;;;;;4941219;28;20461;-88
2021/04/30 01:33:36;;;;;;;5.93;5.37;;;8.60;99.90;;;;;;4935941;28;20537;-88
2021/04/30 01:36:02;;;;;;;6.30;5.70;;;8.50;99.90;;;;;;4936343;28;20535;-87
2021/04/30 01:38:28;;;;;;;5.57;5.07;;;8.60;99.90;;;;;;4936779;28;20209;-88
2021/04/30 01:40:54;;;;;;;7.10;5.77;;;8.70;99.90;;;;;;4939527;28;20504;-88
2021/04/30 01:43:22;;;;;;;6.43;5.90;;;8.80;99.90;;;;;;4933575;28;20551;-88
2021/04/30 01:45:58;;;;;;;6.63;5.80;;;8.80;99.90;;;;;;4938349;28;20482;-88
2021/04/30 01:48:26;;;;;;;6.80;6.20;;;8.90;99.90;;;;;;4939169;28;20805;-89
2021/04/30 01:50:53;;;;;;;5.83;5.40;;;9.00;99.90;;;;;;4941740;28;20450;-90
2021/04/30 01:53:25;;;;;;;7.90;7.20;;;8.90;99.90;;;;;;4936861;28;20446;-89
2021/04/30 01:55:55;;;;;;;7.00;6.40;;;8.80;99.90;;;;;;4937468;28;20478;-90
2021/04/30 01:58:22;;;;;;;7.67;6.97;;;8.80;99.90;;;;;;4939829;28;20500;-90
2021/04/30 02:00:49;;;;;;;6.80;6.20;;;8.80;99.90;;;;;;4938733;28;20443;-89
2021/04/30 02:03:16;;;;;;;7.23;6.63;;;8.90;99.90;;;;;;4947426;28;20826;-89
2021/04/30 02:05:42;;;;;;;8.43;7.13;;;9.00;99.90;;;;;;4937748;28;21357;-90
2021/04/30 02:08:10;;;;;;;7.07;6.30;;;9.00;99.90;;;;;;4937057;28;20510;-88
2021/04/30 02:10:36;;;;;;;7.27;6.57;;;9.00;99.90;;;;;;4955143;28;20457;-88
2021/04/30 02:13:03;;;;;;;7.57;6.90;;;8.90;99.90;;;;;;4937035;28;20812;-89
2021/04/30 02:15:31;;;;;;;7.50;6.80;;;8.90;99.90;;;;;;4937856;28;20457;-88
2021/04/30 02:17:57;;;;;;;8.60;7.70;;;8.90;99.90;;;;;;4942239;28;20807;-88
2021/04/30 02:20:23;;;;;;;11.93;7.90;;;8.90;99.90;;;;;;4939611;28;20540;-89
2021/04/30 02:22:50;;;;;;;9.20;8.40;;;8.80;99.90;;;;;;4930126;28;20920;-89
2021/04/30 02:25:18;;;;;;;8.20;7.50;;;8.60;99.90;;;;;;4935762;28;20465;-89
2021/04/30 02:27:45;;;;;;;9.50;8.40;;;8.60;99.90;;;;;;4936237;28;20538;-89
2021/04/30 02:30:13;;;;;;;9.40;8.50;;;8.50;99.90;;;;;;4935810;28;20448;-89
2021/04/30 02:32:39;;;;;;;8.57;7.70;;;8.50;99.90;;;;;;4931191;28;20561;-89
2021/04/30 02:35:14;;;;;;;9.63;8.67;;;8.60;99.90;;;;;;4937576;28;20910;-89
2021/04/30 02:37:40;;;;;;;8.57;7.73;;;8.50;99.90;;;;;;4940211;28;23303;-89
2021/04/30 02:40:07;;;;;;;9.13;8.23;;;8.40;99.90;;;;;;4936869;28;20490;-89
2021/04/30 02:42:32;;;;;;;9.90;8.90;;;8.30;99.90;;;;;;4936126;28;20460;-89
2021/04/30 02:45:01;;;;;;;11.83;9.03;;;8.30;99.90;;;;;;4930364;28;20477;-89
2021/04/30 02:47:30;;;;;;;9.37;8.47;;;8.40;99.90;;;;;;4937433;28;20236;-89
2021/04/30 02:49:58;;;;;;;9.80;8.80;;;8.50;99.90;;;;;;4939702;28;20460;-90
2021/04/30 02:52:25;;;;;;;9.07;8.17;;;8.50;99.90;;;;;;4921316;28;20872;-89
2021/04/30 02:54:51;;;;;;;9.43;8.53;;;8.50;99.90;;;;;;4939056;28;20520;-90
2021/04/30 02:57:18;;;;;;;9.50;8.00;;;8.40;99.90;;;;;;4939813;28;20749;-90
2021/04/30 02:59:45;;;;;;;9.37;8.53;;;8.30;99.90;;;;;;4939735;28;20623;-89
2021/04/30 03:02:10;;;;;;;8.80;7.90;;;8.10;99.90;;;;;;4935313;28;21388;-89
2021/04/30 03:04:36;;;;;;;9.30;8.40;;;8.10;99.90;;;;;;4942817;28;20996;-90
2021/04/30 03:09:45;;;;;;;9.60;8.60;;;8.00;99.90;;;;;;4941172;28;20817;-89
2021/04/30 03:12:11;;;;;;;8.63;7.73;;;8.10;99.90;;;;;;4937703;28;20469;-90
2021/04/30 03:14:36;;;;;;;9.33;8.33;;;8.10;99.90;;;;;;4942793;28;20255;-89
2021/04/30 03:17:02;;;;;;;9.60;8.70;;;8.00;99.90;;;;;;4940553;28;20195;-89
2021/04/30 03:19:28;;;;;;;8.97;8.10;;;8.10;99.90;;;;;;4941128;28;20682;-88
2021/04/30 03:21:54;;;;;;;9.13;8.23;;;8.20;99.90;;;;;;4948485;28;20664;-89
2021/04/30 03:24:20;;;;;;;9.70;8.80;;;8.10;99.90;;;;;;4931163;28;20236;-89
2021/04/30 03:26:45;;;;;;;9.43;8.53;;;8.00;99.90;;;;;;4938377;28;20515;-89
2021/04/30 03:29:11;;;;;;;9.23;8.33;;;8.10;99.90;;;;;;4935703;28;20198;-89
2021/04/30 03:31:37;;;;;;;9.50;8.60;;;8.10;99.90;;;;;;4933626;28;20404;-89
2021/04/30 03:34:03;;;;;;;8.90;8.00;;;8.10;99.90;;;;;;4937567;28;20216;-90
2021/04/30 03:36:28;;;;;;;9.33;8.50;;;8.10;99.90;;;;;;4936633;28;20246;-90
2021/04/30 03:38:54;;;;;;;8.17;7.37;;;8.20;99.90;;;;;;4937087;28;20438;-91
2021/04/30 03:41:20;;;;;;;9.63;8.63;;;8.30;99.90;;;;;;4934475;28;20195;-91
2021/04/30 03:43:46;;;;;;;9.23;8.33;;;8.40;99.90;;;;;;4947711;28;20215;-90
2021/04/30 03:46:13;;;;;;;10.33;9.33;;;8.30;99.90;;;;;;4930041;28;20558;-90
2021/04/30 03:48:39;;;;;;;11.70;9.57;;;8.20;99.90;;;;;;4934797;28;20447;-89
2021/04/30 03:51:05;;;;;;;10.30;9.30;;;8.20;99.90;;;;;;4936139;28;20991;-90
2021/04/30 03:53:30;;;;;;;9.30;8.50;;;8.20;99.90;;;;;;4933552;28;20653;-86
2021/04/30 03:55:56;;;;;;;9.40;8.40;;;8.10;99.90;;;;;;4937339;28;20541;-87
2021/04/30 03:58:22;;;;;;;10.00;9.00;;;8.10;99.90;;;;;;4937376;28;20187;-86
2021/04/30 04:00:48;;;;;;;11.77;9.13;;;8.00;99.90;;;;;;4938883;28;20657;-88
2021/04/30 04:03:13;;;;;;;9.27;8.37;;;8.00;99.90;;;;;;4941569;28;20459;-91
2021/04/30 04:05:39;;;;;;;8.50;7.50;;;7.80;99.90;;;;;;4943142;29;20235;-89
2021/04/30 04:08:08;;;;;;;10.13;9.10;;;7.80;99.90;;;;;;4942644;28;20560;-88
2021/04/30 04:10:36;;;;;;;8.90;8.00;;;7.70;99.90;;;;;;4942324;28;20218;-89
2021/04/30 04:13:20;;;;;;;10.07;8.93;;;7.80;99.90;;;;;;4945021;29;20472;-90
2021/04/30 04:15:47;;;;;;;9.93;8.70;;;7.80;99.90;;;;;;4935445;28;20544;-87
2021/04/30 04:18:14;;;;;;;10.17;9.17;;;7.80;99.90;;;;;;4940505;28;20525;-87
2021/04/30 04:20:41;;;;;;;9.33;8.40;;;7.80;99.90;;;;;;4939010;28;20871;-86
2021/04/30 04:23:08;;;;;;;9.60;8.70;;;7.80;99.90;;;;;;4939698;28;20827;-91
2021/04/30 04:25:34;;;;;;;10.73;9.63;;;7.80;99.90;;;;;;4938777;28;20454;-93
2021/04/30 04:28:00;;;;;;;10.80;9.47;;;7.80;99.90;;;;;;4927050;28;20483;-96
2021/04/30 04:30:28;;;;;;;9.37;8.40;;;7.80;99.90;;;;;;4943728;28;20439;-96
2021/04/30 04:33:05;;;;;;;9.47;8.57;;;7.70;99.90;;;;;;4936410;28;20205;-93
2021/04/30 04:35:31;;;;;;;10.20;8.90;;;7.70;99.90;;;;;;4941905;28;20473;-94
2021/04/30 04:37:57;;;;;;;11.57;9.50;;;7.90;99.90;;;;;;4943495;28;20458;-94
2021/04/30 04:40:25;;;;;;;12.70;10.50;;;8.00;99.90;;;;;;4940818;28;20443;-92
2021/04/30 04:42:51;;;;;;;11.03;9.90;;;7.90;99.90;;;;;;4958283;28;20447;-95
2021/04/30 04:45:17;;;;;;;12.40;10.83;;;7.90;99.90;;;;;;4943203;28;21129;-95
2021/04/30 04:47:43;;;;;;;11.70;10.47;;;8.00;99.90;;;;;;4941037;28;20450;-93
2021/04/30 04:50:11;;;;;;;12.20;10.90;;;8.10;99.90;;;;;;4937507;28;20475;-94
2021/04/30 04:52:37;;;;;;;12.80;11.17;;;8.10;99.90;;;;;;4943423;29;20804;-92
2021/04/30 04:55:04;;;;;;;12.10;10.90;;;8.00;99.90;;;;;;4945015;29;20446;-92
2021/04/30 04:57:30;;;;;;;13.40;12.10;;;8.00;99.90;;;;;;4938696;28;20446;-94
2021/04/30 04:59:57;;;;;;;13.67;12.27;;;8.10;99.90;;;;;;4945780;28;21009;-92
2021/04/30 05:02:25;;;;;;;13.57;11.67;;;8.10;99.90;;;;;;4945800;28;20272;-92
2021/04/30 05:04:51;;;;;;;12.07;10.77;;;8.20;99.90;;;;;;4948874;29;20458;-91
2021/04/30 05:07:19;;;;;;;15.00;11.03;;;8.30;99.90;;;;;;4947169;28;21065;-94
2021/04/30 05:09:44;;;;;;;11.10;9.90;;;8.40;99.90;;;;;;4948276;28;20247;-92
2021/04/30 05:12:10;;;;;;;12.03;10.83;;;8.40;99.90;;;;;;4946932;28;20463;-95
2021/04/30 05:14:35;;;;;;;12.60;11.40;;;8.50;99.90;;;;;;4945402;28;20191;-89
2021/04/30 05:17:01;;;;;;;13.17;11.77;;;8.60;99.90;;;;;;4945260;28;20597;-91
2021/04/30 05:19:27;;;;;;;13.27;11.87;;;8.50;99.90;;;;;;4946231;28;20187;-93
2021/04/30 05:22:06;;;;;;;14.50;12.00;;;8.40;99.90;;;;;;4949102;28;20293;-87
2021/04/30 05:24:31;;;;;;;15.03;12.50;;;8.40;99.90;;;;;;4948016;28;20195;-93
2021/04/30 05:26:57;;;;;;;14.50;11.97;;;8.50;99.90;;;;;;4948293;28;20482;-91
2021/04/30 05:29:23;;;;;;;16.20;12.07;;;8.40;99.90;;;;;;4945021;28;20205;-90
2021/04/30 05:31:51;;;;;;;14.43;11.73;;;8.40;99.90;;;;;;4943142;29;20197;-91
2021/04/30 05:34:29;;;;;;;11.27;9.40;;;8.50;99.90;;;;;;4945337;28;20249;-93
2021/04/30 05:36:57;;;;;;;11.70;10.50;;;8.70;99.90;;;;;;4948962;28;20444;-94
2021/04/30 05:39:28;;;;;;;13.30;10.50;;;8.80;99.90;;;;;;4948088;29;20449;-94
2021/04/30 05:41:54;;;;;;;12.33;11.03;;;8.80;99.90;;;;;;4950748;29;20489;-93
2021/04/30 05:44:19;;;;;;;13.50;11.77;;;8.90;99.90;;;;;;4944425;28;20456;-94
2021/04/30 05:46:45;;;;;;;10.30;9.30;;;9.00;99.90;;;;;;4951475;28;20289;-96
2021/04/30 05:49:11;;;;;;;11.37;10.17;;;9.10;99.90;;;;;;4954109;28;20282;-93
2021/04/30 05:51:36;;;;;;;10.20;9.20;;;9.30;99.90;;;;;;4943872;28;20211;-92
2021/04/30 05:54:03;;;;;;;11.97;10.53;;;9.30;99.90;;;;;;4943583;28;20216;-92
2021/04/30 05:56:33;;;;;;;12.10;9.90;;;9.40;99.90;;;;;;4943982;28;20194;-93
2021/04/30 05:58:59;;;;;;;11.00;9.83;;;9.40;99.90;;;;;;4942800;28;20437;-93
2021/04/30 06:01:25;;;;;;;12.63;10.03;;;9.50;99.90;;;;;;4943087;28;20440;-93
2021/04/30 06:03:51;;;;;;;11.87;10.23;;;9.50;99.90;;;;;;4947780;29;21020;-93
2021/04/30 06:06:17;;;;;;;11.27;10.17;;;9.50;99.90;;;;;;4945213;28;20211;-92
2021/04/30 06:08:43;;;;;;;10.90;9.80;;;9.50;99.90;;;;;;4944292;28;20506;-90
2021/04/30 06:11:09;;;;;;;12.43;11.33;;;9.70;99.90;;;;;;4959154;28;20188;-91
2021/04/30 06:13:35;;;;;;;11.00;9.77;;;9.70;99.90;;;;;;4941080;28;20290;-91
2021/04/30 06:16:00;;;;;;;10.60;9.50;;;9.70;99.90;;;;;;4940393;28;20659;-91
2021/04/30 06:18:37;;;;;;;14.30;9.90;;;9.90;99.90;;;;;;4944714;28;20526;-91
2021/04/30 06:21:11;;;;;;;11.87;10.67;;;10.20;99.90;;;;;;4946048;29;20434;-91
2021/04/30 06:23:42;;;;;;;10.80;9.80;;;10.40;99.90;;;;;;4943448;28;20442;-91
2021/04/30 06:26:20;;;;;;;10.40;9.17;;;10.60;99.90;;;;;;4944217;28;20479;-91
2021/04/30 06:28:49;;;;;;;10.50;9.37;;;10.60;99.90;;;;;;4946305;28;20509;-92
2021/04/30 06:31:17;;;;;;;11.20;10.00;;;10.40;99.90;;;;;;4946310;28;20476;-92
2021/04/30 06:33:43;;;;;;;10.87;9.67;;;10.50;99.90;;;;;;4942003;28;20992;-89
2021/04/30 06:36:09;;;;;;;12.03;10.63;;;10.30;99.90;;;;;;4944871;28;20442;-89
2021/04/30 06:38:36;;;;;;;11.53;9.97;;;10.10;99.90;;;;;;4942533;28;20455;-86
2021/04/30 06:41:02;;;;;;;10.50;9.40;;;10.00;99.90;;;;;;4941473;29;20191;-90
2021/04/30 06:43:28;;;;;;;11.50;9.97;;;9.80;99.90;;;;;;4942289;28;20470;-87
2021/04/30 06:45:53;;;;;;;9.73;8.80;;;9.70;99.90;;;;;;4939704;29;20224;-91
2021/04/30 06:48:19;;;;;;;12.13;10.20;;;9.80;99.90;;;;;;4942391;28;20209;-91
2021/04/30 06:50:45;;;;;;;11.33;10.23;;;10.00;99.90;;;;;;4942036;28;20250;-90
2021/04/30 06:53:10;;;;;;;12.10;10.10;;;9.90;99.90;;;;;;4943562;28;20442;-90
2021/04/30 06:55:36;;;;;;;11.13;10.13;;;9.70;99.90;;;;;;4944596;28;20250;-90
2021/04/30 06:58:02;;;;;;;10.20;9.20;;;9.70;99.90;;;;;;4940222;28;20285;-91
2021/04/30 07:00:32;;;;;;;11.80;9.70;;;9.80;99.90;;;;;;4922964;29;20218;-92
2021/04/30 07:02:58;;;;;;;11.10;9.83;;;9.80;99.90;;;;;;4937959;28;20538;-91
2021/04/30 07:05:24;;;;;;;11.73;10.63;;;9.80;99.90;;;;;;4938655;28;20544;-90
2021/04/30 07:07:57;;;;;;;10.57;9.57;;;9.80;99.90;;;;;;4942272;28;20211;-90
2021/04/30 07:10:32;;;;;;;10.57;9.50;;;9.80;99.90;;;;;;4943991;28;20860;-91
2021/04/30 07:13:00;;;;;;;10.37;9.37;;;9.70;99.90;;;;;;4940832;29;20467;-91
2021/04/30 07:15:26;;;;;;;11.33;9.90;;;9.80;99.90;;;;;;4941544;28;20516;-92
2021/04/30 07:17:52;;;;;;;10.30;9.30;;;9.70;99.90;;;;;;4938036;28;20463;-88
2021/04/30 07:20:18;;;;;;;12.13;10.33;;;9.70;99.90;;;;;;4942919;28;20443;-90
2021/04/30 07:22:44;;;;;;;11.50;10.30;;;9.60;99.90;;;;;;4938138;28;20308;-89
2021/04/30 07:25:10;;;;;;;11.30;9.70;;;9.70;99.90;;;;;;4942819;29;21025;-92
2021/04/30 07:27:45;;;;;;;11.50;9.67;;;9.90;99.90;;;;;;4940058;28;20309;-89
2021/04/30 07:30:28;;;;;;;10.37;9.27;;;10.00;99.90;;;;;;4942032;28;21022;-91
2021/04/30 07:32:56;;;;;;;10.80;9.80;;;10.20;99.90;;;;;;4943543;28;20437;-91
2021/04/30 07:35:22;;;;;;;12.20;11.00;;;10.30;99.90;;;;;;4942923;28;20188;-93
2021/04/30 07:37:48;;;;;;;11.33;10.03;;;10.30;99.90;;;;;;4943377;28;20491;-94
2021/04/30 07:40:14;;;;;;;10.80;9.50;;;10.50;99.90;;;;;;4944209;28;20190;-91
2021/04/30 07:42:39;;;;;;;11.80;10.60;;;10.70;99.90;;;;;;4942175;28;20228;-92
2021/04/30 07:45:06;;;;;;;10.33;9.40;;;10.50;99.50;;;;;;4943587;28;20188;-93
2021/04/30 07:47:32;;;;;;;10.37;9.37;;;10.50;99.90;;;;;;4943610;28;20316;-92
2021/04/30 07:49:57;;;;;;;11.30;10.20;;;10.50;99.90;;;;;;4942220;28;20452;-92
2021/04/30 07:52:24;;;;;;;10.60;9.50;;;10.60;99.90;;;;;;4940703;28;20503;-93
2021/04/30 07:54:49;;;;;;;11.93;10.60;;;10.60;99.90;;;;;;4943042;28;20528;-91
2021/04/30 07:57:15;;;;;;;10.70;9.60;;;10.70;99.90;;;;;;4941965;28;20583;-93
2021/04/30 07:59:41;;;;;;;10.83;9.53;;;10.80;99.40;;;;;;4943228;28;20196;-91
2021/04/30 08:02:07;;;;;;;13.43;10.20;;;10.80;99.90;;;;;;4942771;28;20196;-91
2021/04/30 08:04:41;;;;;;;12.40;11.13;;;10.70;99.90;;;;;;4942037;28;20315;-90
2021/04/30 08:07:11;;;;;;;11.70;10.40;;;10.60;99.90;;;;;;4940858;29;20488;-92
2021/04/30 08:09:38;;;;;;;12.40;11.10;;;10.50;99.90;;;;;;4936639;28;20461;-92
2021/04/30 08:18:14;;;;;;;10.63;9.53;;;10.30;99.90;;;;;;4943558;29;20456;-92
2021/04/30 08:20:39;;;;;;;11.57;10.37;;;10.20;99.90;;;;;;4938534;28;20458;-91
2021/04/30 08:23:05;;;;;;;13.37;9.87;;;10.30;99.90;;;;;;4939381;29;20197;-90
2021/04/30 08:25:33;;;;;;;11.30;10.17;;;10.30;99.60;;;;;;4941638;28;20205;-90
2021/04/30 08:27:58;;;;;;;13.23;11.80;;;10.40;99.90;;;;;;4937688;29;20217;-91
2021/04/30 08:30:25;;;;;;;13.90;11.17;;;10.20;99.50;;;;;;4942054;29;21772;-88
2021/04/30 08:33:00;;;;;;;11.77;10.53;;;10.00;99.90;;;;;;4924426;28;20200;-91
2021/04/30 08:35:25;;;;;;;13.37;9.90;;;10.10;99.90;;;;;;4941231;28;20476;-90
2021/04/30 08:37:51;;;;;;;13.43;10.70;;;10.10;99.90;;;;;;4939118;28;21382;-90
2021/04/30 08:40:17;;;;;;;14.43;9.93;;;10.30;99.60;;;;;;4938539;28;20203;-92
2021/04/30 08:42:43;;;;;;;11.67;10.57;;;10.50;99.90;;;;;;4942486;28;20188;-88
2021/04/30 08:45:14;;;;;;;14.23;11.30;;;10.70;99.30;;;;;;4946936;29;20194;-93
2021/04/30 08:47:41;;;;;;;11.57;10.40;;;10.70;99.60;;;;;;4942806;29;20514;-91
2021/04/30 08:50:07;;;;;;;12.63;10.17;;;11.10;99.00;;;;;;4942341;28;20942;-93
2021/04/30 08:52:33;;;;;;;11.83;10.50;;;11.20;98.10;;;;;;4945200;28;20475;-93
2021/04/30 08:55:04;;;;;;;11.57;10.37;;;11.40;99.20;;;;;;4946537;29;20433;-93
2021/04/30 08:57:31;;;;;;;10.30;9.27;;;12.00;98.50;;;;;;4945211;28;20449;-91
2021/04/30 08:59:59;;;;;;;11.60;10.07;;;12.30;97.60;;;;;;4946398;29;20438;-92
2021/04/30 09:02:31;;;;;;;12.20;10.50;;;12.60;96.60;;;;;;4945966;28;20549;-91
2021/04/30 09:04:56;;;;;;;11.97;10.87;;;13.00;96.30;;;;;;4961029;28;20442;-92
2021/04/30 09:07:26;;;;;;;12.47;11.17;;;12.90;95.70;;;;;;4942462;28;20485;-91
2021/04/30 09:10:14;;;;;;;11.53;10.40;;;12.90;96.40;;;;;;4944382;28;20512;-91
2021/04/30 09:12:41;;;;;;;11.57;10.50;;;12.90;96.70;;;;;;4942061;29;20504;-88
2021/04/30 09:15:40;;;;;;;11.50;10.40;;;12.70;96.40;;;;;;4940073;28;20490;-88
2021/04/30 09:18:21;;;;;;;12.60;11.23;;;12.20;96.10;;;;;;4942492;29;20439;-90
2021/04/30 09:20:48;;;;;;;12.60;10.77;;;11.40;97.60;;;;;;4959457;28;20445;-88
2021/04/30 09:23:36;;;;;;;12.73;10.83;;;10.90;98.20;;;;;;4938641;28;20515;-88
2021/04/30 09:26:35;;;;;;;17.33;11.40;;;10.60;99.60;;;;;;4931757;28;20483;-88
2021/04/30 09:29:05;;;;;;;12.27;11.00;;;10.40;99.90;;;;;;4936848;28;20452;-87
2021/04/30 09:31:37;;;;;;;14.23;11.17;;;10.40;99.90;;;;;;4938541;28;21050;-87
2021/04/30 09:34:16;;;;;;;13.53;10.67;;;10.20;99.90;;;;;;4959477;28;20490;-87
2021/04/30 09:37:17;;;;;;;14.70;10.73;;;10.00;99.90;;;;;;4959021;28;21627;-88
2021/04/30 09:40:35;;;;;;;13.93;11.07;;;10.10;99.90;;;;;;4917868;28;20521;-89
2021/04/30 09:43:07;;;;;;;14.33;11.30;;;10.30;99.90;;;;;;4923235;28;20450;-88
2021/04/30 09:45:34;;;;;;;15.13;11.00;;;10.40;99.90;;;;;;4942191;28;20444;-87
2021/04/30 09:48:09;;;;;;;13.37;11.97;;;10.60;99.90;;;;;;4944118;29;20439;-88
2021/04/30 09:50:42;;;;;;;13.10;10.73;;;10.90;99.90;;;;;;4943662;28;20800;-88
2021/04/30 09:53:11;;;;;;;13.33;11.83;;;10.90;99.90;;;;;;4939170;28;20449;-88
2021/04/30 09:56:05;;;;;;;19.30;11.47;;;11.30;99.90;;;;;;4938520;29;20476;-88
2021/04/30 09:58:44;;;;;;;11.87;10.67;;;11.50;98.20;;;;;;4942138;29;20464;-88
2021/04/30 10:01:22;;;;;;;12.03;10.80;;;11.50;98.40;;;;;;4928148;28;20461;-89
2021/04/30 10:03:47;;;;;;;13.00;10.87;;;11.70;98.30;;;;;;4935766;29;20469;-88
2021/04/30 10:06:19;;;;;;;11.93;10.73;;;11.60;97.80;;;;;;4942168;29;20495;-88
2021/04/30 10:09:09;;;;;;;11.90;10.70;;;11.40;98.30;;;;;;4945244;28;20230;-89
2021/04/30 10:11:35;;;;;;;10.70;9.47;;;11.60;98.40;;;;;;4936501;28;20457;-87
2021/04/30 10:14:02;;;;;;;12.13;10.60;;;11.30;97.70;;;;;;4939574;28;21034;-88
2021/04/30 10:16:30;;;;;;;13.40;10.60;;;11.20;97.70;;;;;;4938419;29;20461;-88
2021/04/30 10:18:56;;;;;;;14.50;10.37;;;10.90;98.00;;;;;;4938279;28;20453;-87
2021/04/30 10:21:23;;;;;;;12.80;11.50;;;10.90;98.70;;;;;;4937524;29;20998;-88
2021/04/30 10:23:51;;;;;;;11.63;10.47;;;11.20;99.00;;;;;;4937335;28;20201;-87
2021/04/30 10:26:18;;;;;;;13.20;11.77;;;11.40;99.40;;;;;;4937228;29;20988;-88
2021/04/30 10:28:52;;;;;;;12.50;10.37;;;11.60;98.70;;;;;;4937154;28;20488;-87
2021/04/30 10:31:23;;;;;;;11.87;10.53;;;11.40;98.70;;;;;;4936089;29;20454;-87
2021/04/30 10:33:58;;;;;;;12.80;11.00;;;11.00;98.60;;;;;;4936279;28;20964;-87
2021/04/30 10:36:31;;;;;;;12.97;11.67;;;10.60;99.50;;;;;;4937864;28;21002;-88
2021/04/30 10:39:02;;;;;;;14.93;13.00;;;10.40;99.90;;;;;;4937809;29;20444;-88
2021/04/30 10:41:39;;;;;;;13.83;11.13;;;10.00;99.90;;;;;;4935696;29;20459;-87
2021/04/30 10:44:17;;;;;;;13.57;11.47;;;9.60;99.90;;;;;;4952834;28;20446;-88
2021/04/30 10:46:49;;;;;;;14.53;11.30;;;9.60;99.90;;;;;;4934961;28;20517;-88
2021/04/30 10:49:21;;;;;;;15.33;12.77;;;9.60;99.90;;;;;;4936708;28;20455;-87
2021/04/30 10:52:25;;;;;;;15.47;13.00;;;9.50;99.90;;;;;;4934293;28;20427;-86
2021/04/30 10:55:22;;;;;;;13.80;12.33;;;9.20;99.90;;;;;;4936574;28;21003;-88
2021/04/30 10:58:04;;;;;;;15.43;12.70;;;9.10;99.90;;;;;;4934642;29;20465;-88
2021/04/30 11:00:42;;;;;;;18.20;13.70;;;9.00;99.90;;;;;;4940808;28;20449;-87
2021/04/30 11:03:24;;;;;;;17.97;14.10;;;8.80;99.90;;;;;;4933450;29;20467;-88
2021/04/30 11:06:28;;;;;;;20.20;15.07;;;8.70;99.90;;;;;;4936998;28;20476;-88
2021/04/30 11:08:56;;;;;;;18.33;15.83;;;8.30;99.90;;;;;;4936918;29;20465;-89
2021/04/30 11:11:35;;;;;;;18.87;15.43;;;8.20;99.90;;;;;;4938343;29;20552;-90
2021/04/30 11:14:25;;;;;;;19.47;15.67;;;8.10;99.90;;;;;;4937534;28;20542;-89
2021/04/30 11:16:53;;;;;;;22.30;16.40;;;8.10;99.90;;;;;;4923249;29;20881;-88
2021/04/30 11:19:24;;;;;;;20.60;15.87;;;8.00;99.90;;;;;;4936586;29;21119;-88
2021/04/30 11:21:52;;;;;;;20.43;15.73;;;8.00;99.90;;;;;;4938934;28;20497;-89
2021/04/30 11:24:44;;;;;;;24.50;16.10;;;8.10;99.90;;;;;;4937999;28;20493;-92
2021/04/30 11:27:22;;;;;;;20.93;17.10;;;8.10;99.90;;;;;;4937376;29;21027;-89
2021/04/30 11:29:48;;;;;;;19.60;17.30;;;8.00;99.90;;;;;;4937275;28;20446;-87
2021/04/30 11:32:25;;;;;;;21.57;17.27;;;8.00;99.90;;;;;;4937817;28;20482;-87
2021/04/30 11:34:59;;;;;;;20.27;17.90;;;7.80;99.90;;;;;;4936908;29;20523;-89
2021/04/30 11:37:30;;;;;;;24.27;18.53;;;7.80;99.90;;;;;;4937192;29;20458;-89
2021/04/30 11:39:57;;;;;;;21.93;18.77;;;7.80;99.90;;;;;;4936799;28;20855;-88
2021/04/30 11:42:34;;;;;;;24.17;18.87;;;7.90;99.90;;;;;;4936883;29;20447;-89
2021/04/30 11:45:01;;;;;;;22.03;19.37;;;7.90;99.90;;;;;;4933892;28;20452;-88
2021/04/30 11:47:31;;;;;;;22.33;18.57;;;7.80;99.90;;;;;;4934907;28;21110;-88
2021/04/30 11:49:59;;;;;;;23.63;18.83;;;7.70;99.90;;;;;;4933479;28;20466;-88
2021/04/30 11:52:45;;;;;;;23.70;17.20;;;7.60;99.90;;;;;;4935612;28;20450;-92
2021/04/30 11:55:19;;;;;;;19.47;16.03;;;7.60;99.90;;;;;;4937425;29;20808;-93
2021/04/30 11:57:56;;;;;;;22.70;17.73;;;7.30;99.90;;;;;;4955407;28;20486;-93
2021/04/30 12:00:32;;;;;;;19.67;16.33;;;7.20;99.90;;;;;;4939225;29;20450;-92
2021/04/30 12:03:07;;;;;;;21.83;17.53;;;7.30;99.90;;;;;;4954745;28;20469;-93
2021/04/30 12:05:33;;;;;;;21.63;17.77;;;7.30;99.90;;;;;;4936018;28;20450;-92
2021/04/30 12:07:59;;;;;;;21.53;17.77;;;7.40;99.90;;;;;;4939701;28;20821;-93
2021/04/30 12:10:28;;;;;;;24.53;19.13;;;7.40;99.90;;;;;;4938152;28;20481;-91
2021/04/30 12:12:54;;;;;;;24.83;19.90;;;7.30;99.90;;;;;;4956209;28;20549;-92
2021/04/30 12:15:28;;;;;;;25.67;19.60;;;7.20;99.90;;;;;;4938746;28;20531;-93
2021/04/30 12:17:54;;;;;;;22.43;17.93;;;7.20;99.90;;;;;;4941472;28;20697;-92
2021/04/30 12:20:23;;;;;;;25.73;19.53;;;7.00;99.90;;;;;;4944998;28;20446;-90
2021/04/30 12:25:54;;;;;;;27.20;20.53;;;7.00;99.90;;;;;;4942785;29;20440;-89
2021/04/30 12:28:27;;;;;;;26.47;20.53;;;7.00;99.90;;;;;;4941018;28;20461;-91
2021/04/30 12:31:11;;;;;;;24.47;20.57;;;7.00;99.90;;;;;;4946586;28;20564;-92
2021/04/30 12:33:46;;;;;;;23.43;19.03;;;6.90;99.90;;;;;;4941196;28;20450;-93
2021/04/30 12:36:23;;;;;;;23.50;19.47;;;7.00;99.90;;;;;;4967636;28;20438;-90
2021/04/30 12:38:54;;;;;;;25.87;20.27;;;7.20;99.90;;;;;;4937500;28;20442;-91
2021/04/30 12:41:49;;;;;;;25.20;16.90;;;7.30;99.90;;;;;;4924681;28;20800;-91
2021/04/30 12:44:15;;;;;;;25.03;17.63;;;7.20;99.90;;;;;;4934004;28;20463;-90
2021/04/30 12:46:43;;;;;;;23.50;18.20;;;7.20;99.90;;;;;;4936249;28;20513;-91
2021/04/30 12:49:10;;;;;;;21.83;18.17;;;7.20;99.90;;;;;;4940038;28;20405;-91
2021/04/30 12:51:42;;;;;;;20.40;16.10;;;7.20;99.90;;;;;;4934768;28;20490;-91
2021/04/30 12:54:11;;;;;;;22.83;16.77;;;7.20;99.90;;;;;;4938131;28;20458;-91
2021/04/30 12:56:54;;;;;;;20.70;17.70;;;7.10;99.90;;;;;;4940881;28;21022;-91
2021/04/30 12:59:24;;;;;;;22.43;18.80;;;7.10;99.90;;;;;;4939097;28;20460;-91
2021/04/30 13:02:01;;;;;;;24.20;21.43;;;7.20;99.90;;;;;;4940621;28;20525;-91
2021/04/30 13:04:28;;;;;;;20.00;16.50;;;7.30;99.90;;;;;;4939765;28;20516;-90
2021/04/30 13:06:54;;;;;;;20.63;17.87;;;7.20;99.90;;;;;;4939396;28;20578;-91